Time;durP1;ratioP1;P1;durP2;ratioP2;P2;SDS_P1;SDS_P2;PMS_P1;PMS_P2;Temp;Humidity;BMP_temperature;BMP_pressure;BME280_temperature;BME280_humidity;BME280_pressure;Samples;Min_cycle;Max_cycle;Signal;HPM_P1;HPM_P2
2021/03/03 00:04:08;;;;;;;80.88;30.13;;;;;;;;;;8324277;28;20405;-69
2021/03/03 00:08:16;;;;;;;87.40;32.47;;;;;;;;;;8290152;28;20477;-70
2021/03/03 00:12:20;;;;;;;81.80;32.35;;;;;;;;;;8322162;28;20377;-69
2021/03/03 00:16:25;;;;;;;84.38;29.67;;;;;;;;;;8321814;28;20482;-69
2021/03/03 00:20:30;;;;;;;82.28;31.20;;;;;;;;;;8332648;28;20461;-69
2021/03/03 00:24:35;;;;;;;92.30;31.77;;;;;;;;;;8353384;28;20389;-69
2021/03/03 00:28:39;;;;;;;99.32;35.40;;;;;;;;;;8363186;28;20361;-70
2021/03/03 00:32:44;;;;;;;108.95;35.10;;;;;;;;;;8361928;28;20458;-69
2021/03/03 00:36:49;;;;;;;100.82;36.42;;;;;;;;;;8360825;28;20415;-69
2021/03/03 00:40:53;;;;;;;109.05;37.70;;;;;;;;;;8343200;28;20074;-69
2021/03/03 00:44:58;;;;;;;98.78;35.97;;;;;;;;;;8342955;28;20040;-71
2021/03/03 00:49:02;;;;;;;94.03;33.97;;;;;;;;;;8360276;28;20484;-71
2021/03/03 00:53:14;;;;;;;92.72;32.90;;;;;;;;;;8361284;28;20056;-70
2021/03/03 00:57:20;;;;;;;98.03;32.70;;;;;;;;;;8342604;28;20365;-70
2021/03/03 01:01:25;;;;;;;98.97;33.95;;;;;;;;;;8359039;28;20077;-70
2021/03/03 01:05:30;;;;;;;92.15;34.50;;;;;;;;;;8335985;28;20346;-70
2021/03/03 01:09:38;;;;;;;102.85;35.78;;;;;;;;;;8308292;28;20359;-71
2021/03/03 01:13:43;;;;;;;107.07;37.55;;;;;;;;;;8329651;28;20454;-71
2021/03/03 01:17:59;;;;;;;102.15;35.92;;;;;;;;;;8309717;28;20386;-72
2021/03/03 01:22:04;;;;;;;103.22;35.63;;;;;;;;;;8325616;28;20512;-70
2021/03/03 01:26:09;;;;;;;106.43;35.08;;;;;;;;;;8326522;28;20056;-70
2021/03/03 01:30:14;;;;;;;86.40;33.95;;;;;;;;;;8307684;28;20425;-71
2021/03/03 01:34:19;;;;;;;93.82;33.47;;;;;;;;;;8325527;28;20097;-71
2021/03/03 01:38:24;;;;;;;92.57;35.85;;;;;;;;;;8325006;28;20489;-74
2021/03/03 01:42:32;;;;;;;97.78;34.72;;;;;;;;;;8308280;28;20048;-71
2021/03/03 01:46:37;;;;;;;96.50;33.15;;;;;;;;;;8326146;28;20449;-70
2021/03/03 01:50:43;;;;;;;92.63;33.97;;;;;;;;;;8325324;28;20492;-71
2021/03/03 01:54:48;;;;;;;92.25;34.58;;;;;;;;;;8306332;28;20066;-71
2021/03/03 01:58:53;;;;;;;91.35;33.10;;;;;;;;;;8325299;28;20371;-71
2021/03/03 02:02:58;;;;;;;101.65;34.08;;;;;;;;;;8307242;28;20381;-71
2021/03/03 02:07:23;;;;;;;95.88;33.70;;;;;;;;;;8325057;28;20413;-71
2021/03/03 02:12:05;;;;;;;86.43;31.85;;;;;;;;;;8323235;28;20048;-70
2021/03/03 02:16:12;;;;;;;85.50;31.35;;;;;;;;;;8308756;28;20109;-71
2021/03/03 02:20:27;;;;;;;87.97;33.88;;;;;;;;;;8307616;28;20374;-70
2021/03/03 02:24:48;;;;;;;87.88;32.53;;;;;;;;;;8290903;28;20485;-71
2021/03/03 02:28:52;;;;;;;89.47;32.33;;;;;;;;;;8308632;28;20373;-70
2021/03/03 02:33:17;;;;;;;93.70;32.40;;;;;;;;;;8309016;28;20377;-72
2021/03/03 02:37:23;;;;;;;100.72;33.78;;;;;;;;;;8308129;28;20070;-70
2021/03/03 02:41:30;;;;;;;89.75;32.92;;;;;;;;;;8325723;28;20382;-74
2021/03/03 02:45:35;;;;;;;94.55;33.97;;;;;;;;;;8308842;28;20474;-71
2021/03/03 02:49:40;;;;;;;83.22;32.08;;;;;;;;;;8326644;28;20078;-71
2021/03/03 02:53:54;;;;;;;88.40;30.65;;;;;;;;;;8307805;28;20051;-71
2021/03/03 02:58:00;;;;;;;86.63;33.00;;;;;;;;;;8325788;28;20450;-71
2021/03/03 03:02:11;;;;;;;104.25;32.22;;;;;;;;;;8324420;28;20462;-71
2021/03/03 03:06:36;;;;;;;91.63;31.17;;;;;;;;;;8306056;28;20078;-71
2021/03/03 03:10:42;;;;;;;84.72;31.65;;;;;;;;;;8306425;28;20474;-71
2021/03/03 03:14:51;;;;;;;82.57;33.42;;;;;;;;;;8321671;28;20470;-71
2021/03/03 03:19:00;;;;;;;75.15;29.05;;;;;;;;;;8323055;28;20344;-71
2021/03/03 03:23:05;;;;;;;74.43;30.27;;;;;;;;;;8288229;28;20386;-71
2021/03/03 03:27:12;;;;;;;83.57;31.50;;;;;;;;;;8289125;28;20440;-71
2021/03/03 03:31:17;;;;;;;78.57;29.80;;;;;;;;;;8288885;28;20417;-71
2021/03/03 03:35:22;;;;;;;79.22;29.67;;;;;;;;;;8289091;28;20382;-71
2021/03/03 03:39:26;;;;;;;75.18;28.77;;;;;;;;;;8290471;28;20378;-71
2021/03/03 03:43:35;;;;;;;81.00;29.80;;;;;;;;;;8289032;28;20060;-71
2021/03/03 03:47:43;;;;;;;86.97;29.77;;;;;;;;;;8289606;28;20351;-71
2021/03/03 03:51:47;;;;;;;77.13;29.38;;;;;;;;;;8272009;28;20347;-71
2021/03/03 03:55:52;;;;;;;79.68;29.00;;;;;;;;;;8288843;28;20401;-71
2021/03/03 03:59:57;;;;;;;87.63;28.58;;;;;;;;;;8291091;28;20683;-71
2021/03/03 04:04:22;;;;;;;106.30;32.33;;;;;;;;;;8297469;28;20079;-71
2021/03/03 04:08:27;;;;;;;108.82;31.25;;;;;;;;;;8297264;28;20420;-71
2021/03/03 04:12:31;;;;;;;82.50;31.08;;;;;;;;;;8293943;28;20414;-71
2021/03/03 04:16:36;;;;;;;79.30;29.92;;;;;;;;;;8295779;28;20450;-71
2021/03/03 04:20:44;;;;;;;87.97;29.88;;;;;;;;;;8306781;28;20464;-71
2021/03/03 04:24:48;;;;;;;76.50;28.83;;;;;;;;;;8311056;28;20454;-72
2021/03/03 04:28:53;;;;;;;73.15;29.42;;;;;;;;;;8313403;28;20389;-71
2021/03/03 04:32:58;;;;;;;79.93;28.27;;;;;;;;;;8310905;28;20070;-72
2021/03/03 04:37:03;;;;;;;86.80;29.75;;;;;;;;;;8328165;28;20048;-71
2021/03/03 04:41:08;;;;;;;81.07;30.20;;;;;;;;;;8327565;28;20056;-72
2021/03/03 04:45:13;;;;;;;90.93;31.08;;;;;;;;;;8327641;28;20500;-71
2021/03/03 04:49:19;;;;;;;84.68;30.15;;;;;;;;;;8327908;28;20371;-72
2021/03/03 04:53:24;;;;;;;78.18;28.88;;;;;;;;;;8328125;28;20071;-72
2021/03/03 04:57:28;;;;;;;68.43;28.92;;;;;;;;;;8327190;28;20482;-76
2021/03/03 05:01:33;;;;;;;67.88;26.67;;;;;;;;;;8327146;28;20512;-72
2021/03/03 05:05:37;;;;;;;82.15;28.65;;;;;;;;;;8308900;28;20493;-72
2021/03/03 05:09:42;;;;;;;73.65;28.30;;;;;;;;;;8328589;28;20048;-71
2021/03/03 05:13:46;;;;;;;75.47;28.85;;;;;;;;;;8326185;28;20481;-71
2021/03/03 05:17:51;;;;;;;77.20;28.83;;;;;;;;;;8326703;28;20351;-72
2021/03/03 05:21:56;;;;;;;76.25;28.42;;;;;;;;;;8325341;28;20512;-71
2021/03/03 05:26:02;;;;;;;73.90;29.40;;;;;;;;;;8327199;28;20362;-71
2021/03/03 05:30:08;;;;;;;75.35;29.25;;;;;;;;;;8326291;28;20398;-71
2021/03/03 05:34:12;;;;;;;81.72;31.02;;;;;;;;;;8307705;28;20063;-71
2021/03/03 05:38:17;;;;;;;80.25;28.52;;;;;;;;;;8309338;28;20464;-72
2021/03/03 05:42:21;;;;;;;80.70;30.95;;;;;;;;;;8308913;28;20458;-71
2021/03/03 05:46:26;;;;;;;90.22;33.15;;;;;;;;;;8307894;28;20374;-72
2021/03/03 05:50:33;;;;;;;83.95;32.13;;;;;;;;;;8308076;28;20450;-71
2021/03/03 05:54:38;;;;;;;86.63;37.10;;;;;;;;;;8307146;28;20471;-72
2021/03/03 05:58:43;;;;;;;106.72;42.67;;;;;;;;;;8324657;28;20056;-72
2021/03/03 06:02:48;;;;;;;109.03;41.13;;;;;;;;;;8325856;28;20352;-71
2021/03/03 06:06:53;;;;;;;125.63;45.83;;;;;;;;;;8307004;28;20044;-72
2021/03/03 06:11:00;;;;;;;110.65;47.60;;;;;;;;;;8325880;28;20052;-72
2021/03/03 06:15:06;;;;;;;132.50;50.63;;;;;;;;;;8328334;28;20417;-71
2021/03/03 06:19:10;;;;;;;114.28;47.90;;;;;;;;;;8326642;28;20070;-71
2021/03/03 06:23:26;;;;;;;127.05;48.13;;;;;;;;;;8324469;28;20119;-71
2021/03/03 06:27:39;;;;;;;122.65;46.03;;;;;;;;;;8306921;28;20070;-71
2021/03/03 06:31:47;;;;;;;123.78;46.88;;;;;;;;;;8323693;28;20052;-70
2021/03/03 06:35:53;;;;;;;121.22;46.40;;;;;;;;;;8306715;28;20078;-70
2021/03/03 06:40:09;;;;;;;104.93;46.13;;;;;;;;;;8306898;28;20070;-71
2021/03/03 06:44:13;;;;;;;103.82;46.65;;;;;;;;;;8306637;28;20378;-70
2021/03/03 06:48:47;;;;;;;99.70;43.08;;;;;;;;;;8306428;28;20048;-70
2021/03/03 06:52:54;;;;;;;94.30;43.45;;;;;;;;;;8306139;28;20370;-70
2021/03/03 06:57:03;;;;;;;97.18;45.50;;;;;;;;;;8324164;28;20446;-70
2021/03/03 07:01:07;;;;;;;96.07;43.08;;;;;;;;;;8306601;28;20359;-70
2021/03/03 07:05:13;;;;;;;85.13;38.92;;;;;;;;;;8304985;28;20048;-70
2021/03/03 07:09:18;;;;;;;87.55;38.95;;;;;;;;;;8305515;28;20497;-70
2021/03/03 07:13:41;;;;;;;90.88;38.83;;;;;;;;;;8306280;28;20503;-71
2021/03/03 07:17:46;;;;;;;85.60;35.75;;;;;;;;;;8305201;28;20378;-70
2021/03/03 07:21:51;;;;;;;79.90;37.45;;;;;;;;;;8321768;28;20393;-70
2021/03/03 07:25:57;;;;;;;81.13;36.50;;;;;;;;;;8322259;28;20500;-69
2021/03/03 07:30:15;;;;;;;87.65;40.33;;;;;;;;;;8305058;28;20074;-71
2021/03/03 07:34:20;;;;;;;85.82;39.53;;;;;;;;;;8322023;28;20378;-69
2021/03/03 07:38:30;;;;;;;95.88;43.22;;;;;;;;;;8304094;28;20390;-69
2021/03/03 07:42:36;;;;;;;90.63;42.00;;;;;;;;;;8305157;28;20470;-69
2021/03/03 07:46:42;;;;;;;103.10;45.75;;;;;;;;;;8321743;28;20379;-69
2021/03/03 07:50:48;;;;;;;102.35;44.88;;;;;;;;;;8304333;28;20421;-69
2021/03/03 07:54:53;;;;;;;105.47;47.92;;;;;;;;;;8321988;28;20070;-70
2021/03/03 07:58:58;;;;;;;99.13;46.33;;;;;;;;;;8305267;28;20447;-69
2021/03/03 08:03:04;;;;;;;107.55;47.63;;;;;;;;;;8321437;28;20470;-68
2021/03/03 08:07:28;;;;;;;106.38;45.78;;;;;;;;;;8306520;28;20355;-71
2021/03/03 08:11:34;;;;;;;108.47;48.92;;;;;;;;;;8319767;28;20404;-69
2021/03/03 08:15:49;;;;;;;96.68;45.15;;;;;;;;;;8289624;28;20366;-68
2021/03/03 08:19:58;;;;;;;104.90;47.47;;;;;;;;;;8304654;28;20048;-69
2021/03/03 08:24:04;;;;;;;98.75;43.78;;;;;;;;;;8303306;28;20071;-70
2021/03/03 08:28:40;;;;;;;100.95;44.13;;;;;;;;;;8321087;28;20079;-69
2021/03/03 08:32:44;;;;;;;102.43;41.58;;;;;;;;;;8323371;28;20463;-68
2021/03/03 08:36:54;;;;;;;89.45;41.97;;;;;;;;;;8304759;28;20158;-70
2021/03/03 08:41:17;;;;;;;96.10;42.40;;;;;;;;;;8304595;28;20078;-68
2021/03/03 08:45:28;;;;;;;67.35;32.83;;;;;;;;;;8321478;28;20455;-67
2021/03/03 08:49:35;;;;;;;61.83;30.70;;;;;;;;;;8308812;28;20086;-68
2021/03/03 08:53:49;;;;;;;75.05;34.50;;;;;;;;;;8327883;28;20390;-69
2021/03/03 08:57:54;;;;;;;70.13;33.22;;;;;;;;;;8309853;28;20075;-68
2021/03/03 09:02:08;;;;;;;74.13;32.35;;;;;;;;;;8327038;28;20385;-67
2021/03/03 09:06:13;;;;;;;58.15;29.40;;;;;;;;;;8326955;28;20379;-68
2021/03/03 09:10:19;;;;;;;65.43;30.70;;;;;;;;;;8308975;28;20474;-69
2021/03/03 09:14:24;;;;;;;99.75;41.38;;;;;;;;;;8309667;28;20056;-67
2021/03/03 09:18:29;;;;;;;122.60;45.42;;;;;;;;;;8309580;28;20462;-67
2021/03/03 09:22:46;;;;;;;128.95;49.30;;;;;;;;;;8326753;28;20458;-67
2021/03/03 09:27:03;;;;;;;107.18;45.60;;;;;;;;;;8328755;28;20395;-69
2021/03/03 09:31:08;;;;;;;52.33;25.70;;;;;;;;;;8311454;28;20052;-67
2021/03/03 09:35:14;;;;;;;54.10;26.95;;;;;;;;;;8309199;28;20352;-68
2021/03/03 09:39:22;;;;;;;50.35;25.40;;;;;;;;;;8326118;28;20378;-67
2021/03/03 09:43:26;;;;;;;76.20;31.35;;;;;;;;;;8308211;28;20378;-69
2021/03/03 09:47:35;;;;;;;77.63;36.75;;;;;;;;;;8326792;28;20397;-68
2021/03/03 09:51:46;;;;;;;52.15;27.05;;;;;;;;;;8326578;28;20459;-69
2021/03/03 09:55:50;;;;;;;48.83;23.90;;;;;;;;;;8325180;28;20082;-69
2021/03/03 09:59:57;;;;;;;57.97;26.25;;;;;;;;;;8324390;28;20404;-68
2021/03/03 10:04:01;;;;;;;49.85;25.38;;;;;;;;;;8325631;28;20465;-69
2021/03/03 10:08:13;;;;;;;65.80;28.30;;;;;;;;;;8307388;28;20412;-70
2021/03/03 10:12:25;;;;;;;54.00;25.35;;;;;;;;;;8306420;28;20382;-69
2021/03/03 10:16:29;;;;;;;53.53;23.85;;;;;;;;;;8307492;28;20356;-68
2021/03/03 10:20:53;;;;;;;43.05;22.45;;;;;;;;;;8307111;28;20450;-68
2021/03/03 10:25:03;;;;;;;44.17;20.73;;;;;;;;;;8307853;28;20477;-67
2021/03/03 10:29:08;;;;;;;42.58;20.70;;;;;;;;;;8323814;28;20066;-68
2021/03/03 10:33:34;;;;;;;54.20;22.88;;;;;;;;;;8322465;28;20533;-67
2021/03/03 10:37:40;;;;;;;37.72;18.27;;;;;;;;;;8306975;28;20446;-69
2021/03/03 10:41:44;;;;;;;39.97;19.02;;;;;;;;;;8324993;28;20355;-68
2021/03/03 10:46:17;;;;;;;33.42;17.10;;;;;;;;;;8324096;28;20462;-68
2021/03/03 10:50:28;;;;;;;;;;;;;;;;;;8309198;28;20374;-70
2021/03/03 10:54:34;;;;;;;23.73;10.77;;;;;;;;;;8321278;28;20359;-70
2021/03/03 10:58:39;;;;;;;20.50;11.07;;;;;;;;;;8321673;28;20056;-69
2021/03/03 11:02:44;;;;;;;20.38;10.32;;;;;;;;;;8324220;28;20378;-68
2021/03/03 11:06:48;;;;;;;15.57;8.52;;;;;;;;;;8322943;28;20490;-67
2021/03/03 11:11:04;;;;;;;20.00;9.82;;;;;;;;;;8321119;28;20383;-69
2021/03/03 11:15:12;;;;;;;22.92;11.10;;;;;;;;;;8292137;28;20374;-67
2021/03/03 11:19:17;;;;;;;16.38;8.80;;;;;;;;;;8289802;28;20374;-68
2021/03/03 11:23:23;;;;;;;22.13;10.77;;;;;;;;;;8287562;28;20386;-68
2021/03/03 11:27:28;;;;;;;19.30;9.48;;;;;;;;;;8289555;28;20467;-68
2021/03/03 11:31:35;;;;;;;34.17;13.93;;;;;;;;;;8289910;28;20379;-69
2021/03/03 11:35:40;;;;;;;102.15;42.10;;;;;;;;;;8289181;28;20405;-69
2021/03/03 11:39:49;;;;;;;60.60;25.98;;;;;;;;;;8288571;28;20366;-68
2021/03/03 11:43:53;;;;;;;30.10;12.30;;;;;;;;;;8289838;28;20482;-68
2021/03/03 11:47:58;;;;;;;28.17;13.48;;;;;;;;;;8289900;28;20079;-68
2021/03/03 11:52:04;;;;;;;26.90;12.18;;;;;;;;;;8289585;28;20045;-67
2021/03/03 11:56:08;;;;;;;26.65;10.80;;;;;;;;;;8303443;28;20367;-69
2021/03/03 12:00:15;;;;;;;28.52;10.52;;;;;;;;;;8290553;28;20095;-69
2021/03/03 12:04:19;;;;;;;28.40;10.30;;;;;;;;;;8287455;28;20478;-68
2021/03/03 12:08:25;;;;;;;22.92;9.40;;;;;;;;;;8287950;28;20414;-69
2021/03/03 12:12:30;;;;;;;25.50;10.90;;;;;;;;;;8288718;28;20483;-68
2021/03/03 12:16:35;;;;;;;24.50;9.57;;;;;;;;;;8288947;28;20475;-67
2021/03/03 12:20:40;;;;;;;36.97;9.55;;;;;;;;;;8295116;28;20386;-69
2021/03/03 12:24:45;;;;;;;24.05;9.93;;;;;;;;;;8328066;28;20071;-69
2021/03/03 12:28:49;;;;;;;22.92;10.13;;;;;;;;;;8327837;28;20454;-69
2021/03/03 12:32:54;;;;;;;31.13;11.35;;;;;;;;;;8309212;28;20359;-68
2021/03/03 12:36:59;;;;;;;18.83;9.63;;;;;;;;;;8327469;28;20467;-68
2021/03/03 12:41:04;;;;;;;19.15;9.38;;;;;;;;;;8327750;28;20040;-68
2021/03/03 12:45:10;;;;;;;23.55;10.32;;;;;;;;;;8326571;28;20515;-68
2021/03/03 12:49:17;;;;;;;22.35;11.27;;;;;;;;;;8310728;28;20397;-68
2021/03/03 12:53:21;;;;;;;27.52;11.82;;;;;;;;;;8308556;28;20496;-68
2021/03/03 12:57:26;;;;;;;28.90;11.75;;;;;;;;;;8309166;28;20505;-68
2021/03/03 13:01:30;;;;;;;28.50;12.35;;;;;;;;;;8328811;28;20052;-68
2021/03/03 13:05:35;;;;;;;42.50;19.20;;;;;;;;;;8327875;28;20382;-68
2021/03/03 13:09:40;;;;;;;29.35;11.15;;;;;;;;;;8325934;28;20508;-68
2021/03/03 13:13:44;;;;;;;26.98;11.68;;;;;;;;;;8328126;28;20496;-68
2021/03/03 13:17:52;;;;;;;26.92;11.48;;;;;;;;;;8328828;28;20048;-67
2021/03/03 13:21:57;;;;;;;38.22;11.48;;;;;;;;;;8325813;28;20470;-69
2021/03/03 13:26:02;;;;;;;16.95;7.63;;;;;;;;;;8307665;28;20074;-67
2021/03/03 13:30:11;;;;;;;20.88;8.82;;;;;;;;;;8325600;28;20386;-68
2021/03/03 13:34:17;;;;;;;23.65;9.23;;;;;;;;;;8307293;28;20362;-66
2021/03/03 13:38:22;;;;;;;42.05;9.82;;;;;;;;;;8326754;28;20480;-64
2021/03/03 13:42:26;;;;;;;20.05;9.27;;;;;;;;;;8326422;28;20110;-66
2021/03/03 13:46:31;;;;;;;16.00;6.93;;;;;;;;;;8326171;28;20494;-65
2021/03/03 13:50:37;;;;;;;24.52;9.88;;;;;;;;;;8325209;28;20472;-64
2021/03/03 13:54:42;;;;;;;27.08;10.50;;;;;;;;;;8327863;28;20347;-67
2021/03/03 13:58:47;;;;;;;20.08;7.15;;;;;;;;;;8326795;28;20364;-65
2021/03/03 14:02:51;;;;;;;14.98;6.82;;;;;;;;;;8325213;28;20466;-65
2021/03/03 14:06:56;;;;;;;17.73;7.22;;;;;;;;;;8325586;28;20048;-66
2021/03/03 14:11:00;;;;;;;29.80;11.90;;;;;;;;;;8325219;28;20371;-66
2021/03/03 14:15:07;;;;;;;20.63;9.50;;;;;;;;;;8323247;28;20471;-66
2021/03/03 14:19:11;;;;;;;22.48;9.80;;;;;;;;;;8326005;28;20419;-67
2021/03/03 14:23:16;;;;;;;24.90;9.25;;;;;;;;;;8325462;28;20389;-67
2021/03/03 14:27:21;;;;;;;10.63;5.63;;;;;;;;;;8326327;28;20358;-66
2021/03/03 14:31:25;;;;;;;16.33;8.43;;;;;;;;;;8324884;28;20466;-67
2021/03/03 14:35:30;;;;;;;20.42;8.70;;;;;;;;;;8324619;28;20052;-66
2021/03/03 14:39:35;;;;;;;10.70;4.30;;;;;;;;;;8324333;28;20407;-67
2021/03/03 14:43:40;;;;;;;11.40;4.07;;;;;;;;;;8324211;28;20397;-67
2021/03/03 14:47:48;;;;;;;9.55;3.33;;;;;;;;;;8324095;28;20366;-66
2021/03/03 14:51:51;;;;;;;9.88;3.75;;;;;;;;;;8323779;28;20366;-66
2021/03/03 14:55:56;;;;;;;10.18;4.25;;;;;;;;;;8327253;28;20361;-66
2021/03/03 15:00:00;;;;;;;19.20;4.32;;;;;;;;;;8323629;28;20378;-68
2021/03/03 15:04:06;;;;;;;20.35;7.07;;;;;;;;;;8323294;28;20466;-67
2021/03/03 15:08:10;;;;;;;13.43;6.13;;;;;;;;;;8323230;28;20508;-67
2021/03/03 15:12:15;;;;;;;20.58;8.65;;;;;;;;;;8304472;28;20377;-66
2021/03/03 15:16:19;;;;;;;21.90;6.72;;;;;;;;;;8305861;28;20408;-67
2021/03/03 15:20:24;;;;;;;13.18;6.13;;;;;;;;;;8320590;28;20374;-67
2021/03/03 15:24:31;;;;;;;8.98;4.57;;;;;;;;;;8322668;28;20074;-67
2021/03/03 15:28:35;;;;;;;11.95;5.55;;;;;;;;;;8323406;28;20365;-67
2021/03/03 15:32:40;;;;;;;13.38;5.18;;;;;;;;;;8322755;28;20481;-66
2021/03/03 15:36:46;;;;;;;17.38;8.50;;;;;;;;;;8321805;28;20458;-68
2021/03/03 15:40:50;;;;;;;20.38;9.43;;;;;;;;;;8322598;28;20052;-67
2021/03/03 15:44:55;;;;;;;22.70;9.15;;;;;;;;;;8324218;28;20485;-67
2021/03/03 15:49:00;;;;;;;22.25;8.82;;;;;;;;;;8323273;28;20409;-67
2021/03/03 15:53:06;;;;;;;32.97;17.02;;;;;;;;;;8322682;28;20446;-68
2021/03/03 15:57:11;;;;;;;28.35;12.00;;;;;;;;;;8321860;28;20385;-67
2021/03/03 16:01:16;;;;;;;26.73;13.77;;;;;;;;;;8322025;28;20464;-67
2021/03/03 16:05:21;;;;;;;22.95;9.82;;;;;;;;;;8321349;28;20509;-67
2021/03/03 16:09:25;;;;;;;36.63;17.88;;;;;;;;;;8322468;28;20462;-67
2021/03/03 16:13:30;;;;;;;37.90;20.77;;;;;;;;;;8322016;28;20454;-67
2021/03/03 16:17:33;;;;;;;41.08;18.35;;;;;;;;;;8322180;28;20060;-66
2021/03/03 16:21:38;;;;;;;52.38;17.63;;;;;;;;;;8321400;28;20071;-69
2021/03/03 16:25:43;;;;;;;38.08;19.67;;;;;;;;;;8323412;28;20451;-66
2021/03/03 16:29:48;;;;;;;40.97;15.95;;;;;;;;;;8323115;28;20588;-67
2021/03/03 16:33:52;;;;;;;46.42;15.07;;;;;;;;;;8324890;28;20366;-67
2021/03/03 16:38:00;;;;;;;45.35;17.90;;;;;;;;;;8321170;28;20459;-67
2021/03/03 16:42:05;;;;;;;53.50;14.43;;;;;;;;;;8323203;28;20450;-68
2021/03/03 16:46:10;;;;;;;39.63;12.13;;;;;;;;;;8320728;28;20487;-66
2021/03/03 16:50:15;;;;;;;27.05;7.60;;;;;;;;;;8321703;28;20478;-67
2021/03/03 16:54:20;;;;;;;30.60;11.02;;;;;;;;;;8322121;28;20359;-67
2021/03/03 16:58:24;;;;;;;38.08;15.55;;;;;;;;;;8323710;28;20369;-66
2021/03/03 17:02:30;;;;;;;57.80;22.75;;;;;;;;;;8321178;28;20485;-66
2021/03/03 17:06:39;;;;;;;32.03;13.07;;;;;;;;;;8303648;28;20523;-67
2021/03/03 17:10:56;;;;;;;43.17;16.08;;;;;;;;;;8327195;28;20105;-67
2021/03/03 17:15:04;;;;;;;31.20;13.13;;;;;;;;;;8327298;28;20354;-66
2021/03/03 17:19:09;;;;;;;56.03;17.77;;;;;;;;;;8326070;28;20374;-66
2021/03/03 17:23:16;;;;;;;95.82;26.60;;;;;;;;;;8326699;28;20405;-67
2021/03/03 17:27:20;;;;;;;51.15;17.98;;;;;;;;;;8308583;28;20105;-68
2021/03/03 17:31:25;;;;;;;47.33;15.02;;;;;;;;;;8326413;28;20492;-66
2021/03/03 17:35:30;;;;;;;44.80;15.73;;;;;;;;;;8326536;28;20048;-66
2021/03/03 17:39:35;;;;;;;43.63;16.33;;;;;;;;;;8328059;28;20473;-66
2021/03/03 17:43:39;;;;;;;52.05;17.88;;;;;;;;;;8326822;28;20398;-67
2021/03/03 17:47:45;;;;;;;64.40;24.38;;;;;;;;;;8292264;28;20496;-67
2021/03/03 17:51:49;;;;;;;65.90;26.20;;;;;;;;;;8308649;28;20637;-67
2021/03/03 17:55:55;;;;;;;64.97;26.52;;;;;;;;;;8328148;28;20051;-68
2021/03/03 18:00:00;;;;;;;127.38;45.45;;;;;;;;;;8326759;28;20369;-67
2021/03/03 18:04:15;;;;;;;117.35;45.72;;;;;;;;;;8308446;28;20381;-67
2021/03/03 18:08:21;;;;;;;110.38;42.15;;;;;;;;;;8327663;28;20048;-67
2021/03/03 18:12:30;;;;;;;84.22;37.00;;;;;;;;;;8305996;28;20044;-66
2021/03/03 18:16:35;;;;;;;84.70;35.25;;;;;;;;;;8327194;28;20404;-66
2021/03/03 18:20:40;;;;;;;98.15;37.33;;;;;;;;;;8323713;28;20500;-66
2021/03/03 18:24:45;;;;;;;80.47;30.65;;;;;;;;;;8306316;28;20386;-66
2021/03/03 18:28:54;;;;;;;79.25;30.88;;;;;;;;;;8325066;28;20465;-66
2021/03/03 18:32:58;;;;;;;76.45;30.90;;;;;;;;;;8325591;28;20375;-67
2021/03/03 18:37:04;;;;;;;67.55;29.48;;;;;;;;;;8324117;28;20052;-67
2021/03/03 18:41:09;;;;;;;70.45;28.73;;;;;;;;;;8325452;28;20048;-68
2021/03/03 18:45:18;;;;;;;73.95;28.35;;;;;;;;;;8324855;28;20365;-67
2021/03/03 18:49:23;;;;;;;75.63;28.70;;;;;;;;;;8325213;28;20366;-68
2021/03/03 18:53:29;;;;;;;84.57;31.30;;;;;;;;;;8324262;28;20385;-67
2021/03/03 18:57:34;;;;;;;105.90;45.15;;;;;;;;;;8323274;28;20071;-66
2021/03/03 19:01:39;;;;;;;82.80;34.72;;;;;;;;;;8307593;28;20455;-67
2021/03/03 19:05:43;;;;;;;130.48;57.13;;;;;;;;;;8324006;28;20505;-67
2021/03/03 19:09:50;;;;;;;127.45;54.67;;;;;;;;;;8322780;28;20048;-67
2021/03/03 19:13:54;;;;;;;118.82;44.30;;;;;;;;;;8323284;28;20597;-67
2021/03/03 19:17:59;;;;;;;103.45;38.63;;;;;;;;;;8324507;28;20052;-67
2021/03/03 19:22:06;;;;;;;96.05;36.72;;;;;;;;;;8322446;28;20375;-67
2021/03/03 19:26:11;;;;;;;96.75;36.45;;;;;;;;;;8323199;28;20462;-67
2021/03/03 19:30:17;;;;;;;111.60;39.42;;;;;;;;;;8324296;28;20472;-67
2021/03/03 19:34:21;;;;;;;101.22;40.38;;;;;;;;;;8322423;28;20410;-66
2021/03/03 19:38:26;;;;;;;118.20;43.40;;;;;;;;;;8322303;28;20474;-67
2021/03/03 19:42:30;;;;;;;99.13;41.17;;;;;;;;;;8321930;28;20075;-67
2021/03/03 19:46:37;;;;;;;95.10;38.92;;;;;;;;;;8304734;28;20359;-67
2021/03/03 19:50:44;;;;;;;109.75;44.03;;;;;;;;;;8320776;28;20508;-68
2021/03/03 19:54:50;;;;;;;114.50;44.13;;;;;;;;;;8322246;28;20387;-66
2021/03/03 19:58:54;;;;;;;100.47;40.97;;;;;;;;;;8323778;28;20383;-66
2021/03/03 20:02:59;;;;;;;98.88;38.75;;;;;;;;;;8322881;28;20048;-67
2021/03/03 20:07:05;;;;;;;115.70;41.47;;;;;;;;;;8321197;28;20048;-66
2021/03/03 20:11:11;;;;;;;118.60;42.08;;;;;;;;;;8322592;28;20492;-66
2021/03/03 20:15:18;;;;;;;117.60;42.10;;;;;;;;;;8324476;28;20066;-67
2021/03/03 20:19:22;;;;;;;99.10;36.85;;;;;;;;;;8321691;28;20394;-67
2021/03/03 20:23:27;;;;;;;111.53;39.40;;;;;;;;;;8321069;28;20471;-66
2021/03/03 20:27:31;;;;;;;102.95;37.00;;;;;;;;;;8303042;28;20048;-66
2021/03/03 20:31:35;;;;;;;110.00;38.67;;;;;;;;;;8321648;28;20511;-66
2021/03/03 20:35:41;;;;;;;107.68;36.33;;;;;;;;;;8322199;28;20387;-66
2021/03/03 20:39:46;;;;;;;95.32;33.47;;;;;;;;;;8321576;28;20492;-67
2021/03/03 20:43:51;;;;;;;88.15;29.50;;;;;;;;;;8307270;28;20359;-66
2021/03/03 20:47:57;;;;;;;86.30;30.92;;;;;;;;;;8328186;28;20568;-66
2021/03/03 20:52:04;;;;;;;84.47;31.20;;;;;;;;;;8328806;28;20462;-65
2021/03/03 20:56:09;;;;;;;86.20;30.58;;;;;;;;;;8327909;28;20462;-66
2021/03/03 21:00:16;;;;;;;89.65;32.15;;;;;;;;;;8327425;28;20360;-66
2021/03/03 21:04:21;;;;;;;84.00;30.60;;;;;;;;;;8327105;28;20351;-67
2021/03/03 21:08:26;;;;;;;81.22;32.10;;;;;;;;;;8329081;28;20385;-66
2021/03/03 21:12:31;;;;;;;89.18;33.00;;;;;;;;;;8327173;28;20497;-67
2021/03/03 21:16:35;;;;;;;85.78;32.13;;;;;;;;;;8328888;28;20470;-67
2021/03/03 21:20:41;;;;;;;85.50;31.35;;;;;;;;;;8325221;28;20462;-67
2021/03/03 21:24:45;;;;;;;84.38;32.95;;;;;;;;;;8326604;28;20390;-68
2021/03/03 21:28:50;;;;;;;90.40;34.25;;;;;;;;;;8328003;28;20458;-66
2021/03/03 21:32:54;;;;;;;90.25;34.22;;;;;;;;;;8325873;28;20405;-68
2021/03/03 21:37:00;;;;;;;89.47;34.95;;;;;;;;;;8325786;28;20470;-68
2021/03/03 21:41:05;;;;;;;102.88;35.28;;;;;;;;;;8325497;28;20501;-67
2021/03/03 21:45:12;;;;;;;93.00;34.28;;;;;;;;;;8327493;28;20469;-68
2021/03/03 21:49:17;;;;;;;93.65;34.25;;;;;;;;;;8325692;28;20365;-68
2021/03/03 21:53:22;;;;;;;105.43;37.22;;;;;;;;;;8325251;28;20359;-68
2021/03/03 21:57:27;;;;;;;118.45;38.28;;;;;;;;;;8325391;28;20409;-67
2021/03/03 22:01:31;;;;;;;127.50;39.97;;;;;;;;;;8325190;28;20355;-67
2021/03/03 22:05:36;;;;;;;177.55;47.95;;;;;;;;;;8324880;28;20478;-68
2021/03/03 22:09:43;;;;;;;165.10;47.65;;;;;;;;;;8325486;28;20474;-68
2021/03/03 22:13:47;;;;;;;214.05;56.20;;;;;;;;;;8325847;28;20442;-68
2021/03/03 22:17:52;;;;;;;194.20;54.38;;;;;;;;;;8325103;28;20459;-67
2021/03/03 22:21:57;;;;;;;200.77;53.83;;;;;;;;;;8323674;28;20523;-68
2021/03/03 22:26:01;;;;;;;166.13;48.20;;;;;;;;;;8324312;28;20385;-68
2021/03/03 22:30:08;;;;;;;165.77;46.97;;;;;;;;;;8324713;28;20377;-68
2021/03/03 22:34:14;;;;;;;188.60;49.95;;;;;;;;;;8324498;28;20546;-68
2021/03/03 22:38:19;;;;;;;179.27;50.28;;;;;;;;;;8324811;28;20450;-68
2021/03/03 22:42:23;;;;;;;180.80;46.67;;;;;;;;;;8323344;28;20359;-68
2021/03/03 22:46:29;;;;;;;158.30;45.55;;;;;;;;;;8325096;28;20048;-68
2021/03/03 22:50:34;;;;;;;153.15;43.40;;;;;;;;;;8325906;28;20431;-68
2021/03/03 22:54:41;;;;;;;96.40;34.03;;;;;;;;;;8323223;28;20044;-68
2021/03/03 22:58:45;;;;;;;88.63;30.52;;;;;;;;;;8323708;28;20602;-67
2021/03/03 23:02:50;;;;;;;77.32;27.48;;;;;;;;;;8324030;28;20382;-68
2021/03/03 23:06:54;;;;;;;73.22;28.77;;;;;;;;;;8324063;28;20478;-68
2021/03/03 23:10:59;;;;;;;72.68;28.92;;;;;;;;;;8322954;28;20470;-68
2021/03/03 23:15:08;;;;;;;75.72;27.00;;;;;;;;;;8323525;28;20386;-67
2021/03/03 23:19:14;;;;;;;68.97;29.13;;;;;;;;;;8326204;28;20048;-66
2021/03/03 23:23:28;;;;;;;63.28;25.27;;;;;;;;;;8322738;28;20377;-68
2021/03/03 23:27:33;;;;;;;58.63;24.55;;;;;;;;;;8322757;28;20397;-66
2021/03/03 23:31:37;;;;;;;65.80;26.15;;;;;;;;;;8305150;28;20462;-67
2021/03/03 23:35:42;;;;;;;57.40;25.98;;;;;;;;;;8322221;28;20389;-67
2021/03/03 23:39:47;;;;;;;58.33;24.50;;;;;;;;;;8322529;28;20105;-68
2021/03/03 23:43:53;;;;;;;63.33;25.88;;;;;;;;;;8322658;28;20359;-68
2021/03/03 23:47:58;;;;;;;64.22;25.42;;;;;;;;;;8322219;28;20408;-67
2021/03/03 23:52:03;;;;;;;82.63;31.08;;;;;;;;;;8322185;28;20359;-67
2021/03/03 23:56:08;;;;;;;88.50;33.03;;;;;;;;;;8321502;28;20048;-67
